Time;durP1;ratioP1;P1;durP2;ratioP2;P2;SDS_P1;SDS_P2;PMS_P1;PMS_P2;Temp;Humidity;BMP_temperature;BMP_pressure;BME280_temperature;BME280_humidity;BME280_pressure;Samples;Min_cycle;Max_cycle;Signal;HPM_P1;HPM_P2
2023/07/11 00:00:18;;;;;;;8.10;5.47;;;;;;;26.54;41.56;100117.69;6067144;23;20338;-86
2023/07/11 00:02:47;;;;;;;9.52;5.10;;;;;;;26.54;41.17;100114.94;6066098;23;20028;-86
2023/07/11 00:05:15;;;;;;;10.18;5.75;;;;;;;26.52;41.40;100115.16;6043779;23;20037;-86
2023/07/11 00:07:43;;;;;;;7.18;5.05;;;;;;;26.51;41.69;100120.81;6091778;23;20026;-86
2023/07/11 00:10:17;;;;;;;7.40;5.22;;;;;;;26.44;41.82;100123.66;6066301;23;20029;-85
2023/07/11 00:12:45;;;;;;;7.43;5.25;;;;;;;26.44;41.99;100122.84;6067097;23;20041;-87
2023/07/11 00:15:14;;;;;;;8.05;5.43;;;;;;;26.39;41.88;100116.19;6067301;23;20045;-86
2023/07/11 00:17:41;;;;;;;6.40;5.63;;;;;;;26.36;41.96;100110.38;6066218;23;20029;-85
2023/07/11 00:20:08;;;;;;;7.95;5.40;;;;;;;26.36;42.06;100115.81;6091066;23;20036;-86
2023/07/11 00:22:35;;;;;;;9.73;5.68;;;;;;;26.33;41.84;100117.13;6066551;23;20028;-85
2023/07/11 00:25:04;;;;;;;9.80;5.28;;;;;;;26.32;42.12;100110.00;6019942;23;20077;-86
2023/07/11 00:27:31;;;;;;;8.43;5.53;;;;;;;26.31;42.06;100108.34;6042874;23;20442;-85
2023/07/11 00:29:58;;;;;;;9.13;5.32;;;;;;;26.29;41.83;100104.19;6067283;23;20034;-86
2023/07/11 00:32:26;;;;;;;9.25;5.68;;;;;;;26.26;41.95;100107.41;6090079;23;20446;-86
2023/07/11 00:34:53;;;;;;;8.75;5.50;;;;;;;26.23;42.13;100103.25;6043208;23;20040;-85
2023/07/11 00:37:20;;;;;;;7.53;5.30;;;;;;;26.23;41.99;100105.97;6067077;23;20427;-85
2023/07/11 00:39:47;;;;;;;11.20;6.00;;;;;;;26.18;41.83;100097.63;6067325;23;20093;-85
2023/07/11 00:42:14;;;;;;;12.60;5.97;;;;;;;26.17;42.32;100098.72;6043842;23;20030;-86
2023/07/11 00:44:51;;;;;;;15.73;6.30;;;;;;;26.08;41.98;100102.81;6067785;23;20412;-85
2023/07/11 00:47:18;;;;;;;10.82;5.80;;;;;;;26.11;41.79;100092.31;6067251;23;20454;-86
2023/07/11 00:49:46;;;;;;;12.52;5.97;;;;;;;26.09;41.86;100088.97;6041886;23;20022;-86
2023/07/11 00:52:15;;;;;;;10.60;6.00;;;;;;;26.09;41.92;100090.88;6043158;23;22109;-85
2023/07/11 00:54:43;;;;;;;11.45;5.90;;;;;;;26.05;42.39;100098.66;6067089;23;20026;-85
2023/07/11 00:57:10;;;;;;;11.18;5.95;;;;;;;26.02;42.21;100092.88;6067104;23;20033;-86
2023/07/11 00:59:37;;;;;;;9.77;5.75;;;;;;;25.94;42.11;100089.41;6041896;23;20395;-86
2023/07/11 01:02:10;;;;;;;11.07;5.88;;;;;;;25.91;42.45;100092.59;6067392;23;20025;-86
2023/07/11 01:04:38;;;;;;;11.43;5.90;;;;;;;25.94;42.56;100096.75;6066755;23;20786;-86
2023/07/11 01:07:08;;;;;;;12.05;5.68;;;;;;;25.91;42.71;100100.75;6090158;23;20026;-87
2023/07/11 01:09:35;;;;;;;11.05;5.47;;;;;;;25.90;42.91;100090.09;6066905;23;20042;-86
2023/07/11 01:12:07;;;;;;;8.30;5.82;;;;;;;25.85;43.15;100095.38;6043566;23;20025;-85
2023/07/11 01:14:35;;;;;;;7.68;6.15;;;;;;;25.83;43.07;100095.59;6042912;23;20026;-86
2023/07/11 01:17:28;;;;;;;8.45;5.65;;;;;;;25.70;43.68;100096.59;6067174;23;20026;-87
2023/07/11 01:19:57;;;;;;;7.28;5.30;;;;;;;25.78;43.15;100099.00;6065559;23;20046;-86
2023/07/11 01:22:25;;;;;;;9.95;5.95;;;;;;;25.76;43.23;100094.84;6067538;23;20093;-86
2023/07/11 01:24:53;;;;;;;13.13;5.68;;;;;;;25.72;43.43;100096.34;6066545;23;20105;-86
2023/07/11 01:27:20;;;;;;;10.90;5.63;;;;;;;25.71;43.48;100102.88;6066690;23;20018;-86
2023/07/11 01:29:49;;;;;;;8.90;5.10;;;;;;;25.69;43.70;100103.09;6066976;23;20029;-86
2023/07/11 01:32:16;;;;;;;8.95;5.05;;;;;;;25.68;43.48;100095.16;6042893;23;20026;-86
2023/07/11 01:34:43;;;;;;;9.65;5.65;;;;;;;25.66;43.32;100094.56;6066688;23;20026;-86
2023/07/11 01:37:10;;;;;;;10.55;6.13;;;;;;;25.66;43.13;100092.66;6043220;23;20045;-86
2023/07/11 01:39:37;;;;;;;11.50;5.57;;;;;;;25.62;43.34;100094.19;6089883;23;20026;-86
2023/07/11 01:42:05;;;;;;;8.77;5.57;;;;;;;25.59;43.36;100094.63;6041692;23;20026;-85
2023/07/11 01:44:32;;;;;;;9.60;5.82;;;;;;;25.55;43.24;100088.00;6090677;23;20077;-86
2023/07/11 01:47:01;;;;;;;9.48;5.38;;;;;;;25.51;43.64;100087.63;6090529;23;20097;-85
2023/07/11 01:49:28;;;;;;;9.07;5.78;;;;;;;25.48;43.73;100079.91;6019253;23;20022;-86
2023/07/11 01:52:12;;;;;;;9.57;4.90;;;;;;;25.37;43.86;100079.88;6042365;23;20048;-86
2023/07/11 01:54:38;;;;;;;10.70;5.78;;;;;;;25.44;43.82;100081.44;6065697;23;20089;-86
2023/07/11 01:57:09;;;;;;;9.65;5.60;;;;;;;25.43;43.80;100079.78;6116760;23;20073;-86
2023/07/11 01:59:37;;;;;;;6.85;5.03;;;;;;;25.38;43.90;100071.47;6066048;23;20089;-86
2023/07/11 02:02:05;;;;;;;7.70;5.15;;;;;;;25.38;43.75;100071.47;6043603;23;20088;-86
2023/07/11 02:04:33;;;;;;;10.27;5.22;;;;;;;25.37;43.92;100060.84;6090008;23;20025;-86
2023/07/11 02:07:00;;;;;;;9.32;5.50;;;;;;;25.31;44.31;100063.38;6066722;23;20619;-86
2023/07/11 02:09:28;;;;;;;8.15;5.57;;;;;;;25.28;44.56;100065.72;6041707;23;20092;-86
2023/07/11 02:11:55;;;;;;;7.60;5.80;;;;;;;25.21;44.88;100067.69;6066278;23;20028;-86
2023/07/11 02:14:22;;;;;;;9.90;5.63;;;;;;;25.18;44.73;100065.44;6065966;23;20105;-86
2023/07/11 02:16:50;;;;;;;7.70;5.18;;;;;;;25.17;45.00;100061.06;6043104;23;21027;-86
2023/07/11 02:19:21;;;;;;;8.95;5.57;;;;;;;25.14;45.16;100062.31;6067050;23;20025;-87
2023/07/11 02:21:48;;;;;;;10.18;5.93;;;;;;;25.11;45.18;100069.03;6068229;23;20017;-86
2023/07/11 02:24:17;;;;;;;8.27;5.38;;;;;;;25.12;45.21;100067.13;6068000;23;20097;-86
2023/07/11 02:26:44;;;;;;;8.30;5.45;;;;;;;25.11;44.99;100057.31;6091348;23;20026;-86
2023/07/11 02:29:11;;;;;;;12.40;6.50;;;;;;;25.10;44.70;100058.38;6068136;23;20018;-86
2023/07/11 02:31:38;;;;;;;8.00;5.20;;;;;;;25.07;44.46;100056.13;6067394;23;20045;-85
2023/07/11 02:34:05;;;;;;;8.55;5.30;;;;;;;25.04;44.37;100051.13;6019819;23;20030;-86
2023/07/11 02:36:32;;;;;;;9.27;6.28;;;;;;;25.02;44.43;100051.34;6068573;23;20028;-85
2023/07/11 02:38:59;;;;;;;10.48;5.60;;;;;;;25.00;44.37;100049.91;6067786;23;20026;-86
2023/07/11 02:41:26;;;;;;;6.85;5.68;;;;;;;25.00;44.16;100050.75;6091763;23;20081;-86
2023/07/11 02:43:53;;;;;;;8.15;5.80;;;;;;;24.99;44.27;100042.84;6068271;23;20088;-85
2023/07/11 02:46:21;;;;;;;8.65;5.43;;;;;;;24.95;44.26;100047.03;6091644;23;20026;-86
2023/07/11 02:48:48;;;;;;;10.30;6.05;;;;;;;24.94;44.29;100048.13;6090627;23;20022;-85
2023/07/11 02:51:15;;;;;;;8.55;5.13;;;;;;;24.94;44.71;100034.53;6067772;23;20026;-85
2023/07/11 02:53:42;;;;;;;9.27;5.65;;;;;;;24.92;44.82;100041.00;6091537;23;20105;-86
2023/07/11 02:56:09;;;;;;;9.68;6.40;;;;;;;24.91;44.74;100038.53;6043649;23;20187;-86
2023/07/11 02:58:36;;;;;;;8.85;6.05;;;;;;;24.88;44.85;100047.94;6068695;23;20034;-86
2023/07/11 03:01:03;;;;;;;8.68;5.55;;;;;;;24.83;44.88;100036.94;6067527;23;20077;-85
2023/07/11 03:03:30;;;;;;;10.25;5.53;;;;;;;24.83;45.19;100041.50;6067733;23;20473;-86
2023/07/11 03:05:58;;;;;;;9.85;5.45;;;;;;;24.80;45.14;100037.34;6044540;23;20077;-86
2023/07/11 03:08:25;;;;;;;9.43;4.90;;;;;;;24.76;45.10;100038.88;6092311;23;20440;-85
2023/07/11 03:10:52;;;;;;;9.02;6.88;;;;;;;24.74;45.10;100032.00;6067693;23;20085;-85
2023/07/11 03:13:19;;;;;;;11.20;5.78;;;;;;;24.73;45.14;100033.03;6020454;23;20081;-85
2023/07/11 03:15:46;;;;;;;11.55;5.45;;;;;;;24.68;45.43;100031.84;6067799;23;20350;-85
2023/07/11 03:18:13;;;;;;;6.95;5.38;;;;;;;24.69;45.45;100029.97;6068099;23;20557;-86
2023/07/11 03:20:41;;;;;;;9.15;5.50;;;;;;;24.65;45.49;100024.16;6044501;23;20017;-86
2023/07/11 03:23:10;;;;;;;9.23;5.80;;;;;;;24.66;45.50;100028.53;6091620;23;20089;-85
2023/07/11 03:25:38;;;;;;;8.20;5.63;;;;;;;24.65;45.55;100018.72;6043550;23;20101;-86
2023/07/11 03:28:05;;;;;;;7.45;5.90;;;;;;;24.63;45.41;100014.56;6067523;23;20022;-80
2023/07/11 03:30:33;;;;;;;7.82;5.60;;;;;;;24.59;45.47;100010.63;6065954;23;20022;-80
2023/07/11 03:32:59;;;;;;;7.90;5.25;;;;;;;24.58;45.54;100011.69;6041417;23;20049;-80
2023/07/11 03:35:26;;;;;;;7.32;5.28;;;;;;;24.53;45.78;100006.94;6089615;23;20077;-80
2023/07/11 03:37:53;;;;;;;7.65;5.25;;;;;;;24.51;45.75;100008.22;6090801;23;20024;-80
2023/07/11 03:40:20;;;;;;;7.75;5.78;;;;;;;24.49;46.02;100008.41;6089599;23;20101;-80
2023/07/11 03:42:46;;;;;;;8.40;5.88;;;;;;;24.50;45.96;100015.53;6089148;23;20093;-80
2023/07/11 03:45:14;;;;;;;8.85;5.75;;;;;;;24.52;45.90;100012.56;6066744;23;20017;-80
2023/07/11 03:47:40;;;;;;;9.63;6.22;;;;;;;24.50;45.98;100006.53;6082877;23;20438;-80
2023/07/11 03:50:08;;;;;;;8.68;5.75;;;;;;;24.46;46.15;100011.59;6065850;23;20458;-80
2023/07/11 03:52:35;;;;;;;9.48;5.68;;;;;;;24.43;46.10;100001.97;6065977;23;20021;-79
2023/07/11 03:55:02;;;;;;;11.25;6.18;;;;;;;24.45;46.15;100008.03;6090173;23;20033;-80
2023/07/11 03:57:29;;;;;;;8.45;6.07;;;;;;;24.53;46.38;100009.66;6065810;23;20033;-80
2023/07/11 03:59:56;;;;;;;8.73;5.47;;;;;;;24.67;46.20;100007.63;6041394;23;20092;-80
2023/07/11 04:02:22;;;;;;;8.38;5.40;;;;;;;24.91;46.04;100004.03;6066111;23;20025;-80
2023/07/11 04:04:49;;;;;;;11.05;5.93;;;;;;;25.27;45.67;100007.00;6065765;23;20093;-80
2023/07/11 04:07:16;;;;;;;10.55;6.00;;;;;;;25.56;44.85;100006.19;6115860;23;20357;-80
2023/07/11 04:09:43;;;;;;;9.93;6.07;;;;;;;25.90;44.07;100011.19;6114295;23;20062;-80
2023/07/11 04:12:10;;;;;;;9.90;5.63;;;;;;;26.16;43.45;100002.63;6115129;23;20097;-80
2023/07/11 04:14:37;;;;;;;10.65;6.50;;;;;;;26.40;42.75;100000.75;6115348;23;20650;-80
2023/07/11 04:17:03;;;;;;;12.95;6.20;;;;;;;26.49;42.43;100003.97;6065149;23;20473;-80
2023/07/11 04:19:30;;;;;;;9.32;6.35;;;;;;;26.34;42.89;99998.16;6064767;23;20022;-80
2023/07/11 04:21:57;;;;;;;9.60;6.28;;;;;;;26.17;43.43;100001.53;6114700;23;20014;-80
2023/07/11 04:24:24;;;;;;;13.38;6.60;;;;;;;26.04;43.95;99999.03;6064808;23;20025;-80
2023/07/11 04:26:51;;;;;;;10.48;6.38;;;;;;;25.96;44.24;99992.06;6066359;23;20710;-80
2023/07/11 04:29:17;;;;;;;9.98;6.28;;;;;;;25.83;44.57;99994.94;6064228;23;20100;-80
2023/07/11 04:31:44;;;;;;;8.45;6.45;;;;;;;25.76;44.74;100005.09;6065344;23;20120;-80
2023/07/11 04:34:11;;;;;;;8.05;6.00;;;;;;;25.67;44.66;99992.88;6064698;23;20025;-80
2023/07/11 04:36:38;;;;;;;8.55;6.28;;;;;;;25.63;44.50;99992.50;6087829;23;20022;-80
2023/07/11 04:39:04;;;;;;;13.75;7.05;;;;;;;25.62;44.74;99992.72;6065490;23;20042;-79
2023/07/11 04:41:31;;;;;;;8.77;6.53;;;;;;;25.59;45.04;99994.03;6066219;23;20036;-80
2023/07/11 04:43:58;;;;;;;10.88;6.22;;;;;;;25.61;45.19;99997.34;6065063;23;20354;-80
2023/07/11 04:46:25;;;;;;;9.60;6.25;;;;;;;25.63;45.39;99995.22;6114791;23;20049;-80
2023/07/11 04:48:52;;;;;;;10.70;7.10;;;;;;;25.60;45.49;99998.41;6089771;23;20021;-80
2023/07/11 04:51:19;;;;;;;10.05;7.43;;;;;;;25.56;44.45;99994.47;6064924;23;20049;-81
2023/07/11 04:53:46;;;;;;;8.68;6.80;;;;;;;25.48;44.27;100002.97;6039264;23;20543;-79
2023/07/11 04:56:13;;;;;;;9.73;7.30;;;;;;;25.45;44.37;100004.25;6088972;23;20022;-80
2023/07/11 04:58:40;;;;;;;11.10;7.20;;;;;;;25.37;44.48;100001.88;6088606;23;20565;-81
2023/07/11 05:01:12;;;;;;;10.23;7.38;;;;;;;25.31;44.59;100002.75;6055559;23;20431;-80
2023/07/11 05:03:39;;;;;;;10.00;7.10;;;;;;;25.25;44.55;100001.78;6082688;23;20029;-79
2023/07/11 05:06:07;;;;;;;10.90;7.45;;;;;;;25.21;44.90;99988.88;6087906;23;20038;-79
2023/07/11 05:08:34;;;;;;;13.77;7.75;;;;;;;25.16;45.01;99994.13;6062811;23;20025;-79
2023/07/11 05:11:03;;;;;;;11.85;8.18;;;;;;;25.13;45.18;99987.28;6111977;23;20324;-79
2023/07/11 05:13:31;;;;;;;12.90;7.75;;;;;;;25.09;45.00;99988.78;6061167;23;20021;-79
2023/07/11 05:16:02;;;;;;;11.32;7.38;;;;;;;25.05;45.26;99980.25;6087062;23;20112;-80
2023/07/11 05:18:29;;;;;;;12.32;7.20;;;;;;;25.05;45.46;99990.28;6088180;23;20022;-79
2023/07/11 05:20:58;;;;;;;13.68;7.13;;;;;;;25.01;45.21;99989.06;6085814;23;20022;-79
2023/07/11 05:23:26;;;;;;;33.38;7.75;;;;;;;25.01;45.27;99987.22;6061628;23;20410;-79
2023/07/11 05:25:54;;;;;;;12.98;6.90;;;;;;;25.02;45.61;99991.59;6039308;23;20026;-80
2023/07/11 05:28:21;;;;;;;13.20;7.35;;;;;;;25.02;45.61;99988.03;6064806;23;20026;-80
2023/07/11 05:30:48;;;;;;;10.40;7.18;;;;;;;24.99;45.76;99981.16;6037599;23;20101;-80
2023/07/11 05:33:15;;;;;;;16.20;7.15;;;;;;;25.01;45.88;99986.34;6062141;23;20108;-79
2023/07/11 05:35:51;;;;;;;12.63;7.97;;;;;;;25.01;45.93;99980.94;6088431;23;20025;-79
2023/07/11 05:38:17;;;;;;;10.73;7.00;;;;;;;25.04;45.87;99975.06;6087353;23;20046;-81
2023/07/11 05:40:44;;;;;;;13.20;8.05;;;;;;;25.04;45.52;99977.78;6087586;23;20022;-80
2023/07/11 05:43:11;;;;;;;14.38;7.43;;;;;;;25.04;45.60;99977.78;6062529;23;20028;-80
2023/07/11 05:45:38;;;;;;;13.15;8.68;;;;;;;25.02;45.82;99969.03;6087241;23;20021;-79
2023/07/11 05:48:05;;;;;;;13.25;7.68;;;;;;;25.00;45.67;99961.09;6084347;23;20033;-80
2023/07/11 05:50:31;;;;;;;11.32;7.80;;;;;;;25.05;46.13;99960.41;6062410;23;20029;-80
2023/07/11 05:52:58;;;;;;;15.60;8.82;;;;;;;25.07;46.04;99955.59;6063108;23;20048;-79
2023/07/11 05:55:25;;;;;;;10.20;7.70;;;;;;;25.11;46.21;99954.91;6089334;23;20022;-79
2023/07/11 05:57:52;;;;;;;14.35;7.32;;;;;;;25.16;45.98;99956.09;6088566;23;20486;-80
2023/07/11 06:00:19;;;;;;;13.75;7.63;;;;;;;25.16;46.20;99956.09;6112897;23;20026;-79
2023/07/11 06:02:46;;;;;;;17.10;8.63;;;;;;;25.18;46.23;99957.56;6063885;23;20345;-79
2023/07/11 06:05:13;;;;;;;12.18;8.25;;;;;;;25.17;46.52;99955.91;6064792;23;20446;-79
2023/07/11 06:07:39;;;;;;;10.82;7.75;;;;;;;25.18;46.18;99954.84;6089266;23;20021;-80
2023/07/11 06:10:06;;;;;;;12.10;7.43;;;;;;;25.21;46.37;99953.53;6114023;23;20335;-80
2023/07/11 06:12:33;;;;;;;10.88;7.57;;;;;;;25.26;46.40;99949.06;6064406;23;22198;-80
2023/07/11 06:15:00;;;;;;;16.45;7.95;;;;;;;25.27;46.32;99947.22;6088358;23;20497;-81
2023/07/11 06:17:27;;;;;;;12.93;7.95;;;;;;;25.25;46.00;99939.28;6066454;23;20048;-82
2023/07/11 06:19:54;;;;;;;12.68;7.68;;;;;;;25.27;45.92;99934.44;6090125;23;22667;-82
2023/07/11 06:22:21;;;;;;;13.05;8.00;;;;;;;25.33;46.37;99935.41;6066185;23;20790;-82
2023/07/11 06:24:48;;;;;;;13.07;7.82;;;;;;;25.37;46.15;99938.50;6087883;23;20022;-80
2023/07/11 06:27:14;;;;;;;10.43;7.93;;;;;;;25.37;46.29;99933.91;6115051;23;20397;-80
2023/07/11 06:29:41;;;;;;;12.93;8.55;;;;;;;25.39;46.20;99942.66;6087600;23;20056;-79
2023/07/11 06:32:08;;;;;;;12.57;8.20;;;;;;;25.43;46.04;99938.41;6051220;23;20022;-80
2023/07/11 06:34:35;;;;;;;14.48;8.00;;;;;;;25.46;46.23;99946.09;6052677;23;20477;-80
2023/07/11 06:37:02;;;;;;;15.60;8.13;;;;;;;25.47;46.02;99939.63;6063328;23;20088;-80
2023/07/11 06:39:29;;;;;;;12.02;7.72;;;;;;;25.49;45.87;99937.50;6112676;23;20030;-80
2023/07/11 06:41:55;;;;;;;13.55;8.43;;;;;;;25.54;46.05;99940.34;6039506;23;20045;-79
2023/07/11 06:44:25;;;;;;;12.98;8.00;;;;;;;25.55;46.03;99931.13;6064311;23;20084;-79
2023/07/11 06:46:52;;;;;;;11.93;8.40;;;;;;;25.58;45.70;99934.44;6087920;23;20048;-79
2023/07/11 06:49:19;;;;;;;13.60;8.85;;;;;;;25.59;45.79;99923.31;6086111;23;20350;-79
2023/07/11 06:51:46;;;;;;;16.90;8.73;;;;;;;25.64;45.57;99928.88;6087141;23;20049;-79
2023/07/11 06:54:12;;;;;;;16.85;9.10;;;;;;;25.66;45.71;99917.78;6087076;23;20108;-81
2023/07/11 06:56:39;;;;;;;12.32;8.13;;;;;;;25.68;45.87;99916.50;6064892;23;20100;-79
2023/07/11 06:59:06;;;;;;;13.27;7.95;;;;;;;25.70;45.53;99919.00;6083074;23;20116;-79
2023/07/11 07:01:33;;;;;;;16.00;8.50;;;;;;;25.70;46.05;99908.94;6038783;23;20052;-81
2023/07/11 07:04:04;;;;;;;15.52;9.15;;;;;;;25.74;46.37;99910.13;6111801;23;20049;-80
2023/07/11 07:06:32;;;;;;;17.95;8.82;;;;;;;25.76;46.08;99915.31;6111609;23;20082;-79
2023/07/11 07:09:00;;;;;;;12.68;7.50;;;;;;;25.76;46.21;99905.28;6062743;23;20525;-79
2023/07/11 07:11:27;;;;;;;18.70;8.48;;;;;;;25.82;45.96;99908.13;6064017;23;20462;-79
2023/07/11 07:13:54;;;;;;;10.90;7.78;;;;;;;25.85;46.35;99902.22;6111408;23;20014;-79
2023/07/11 07:16:36;;;;;;;10.65;7.75;;;;;;;25.86;46.48;99899.28;6109541;23;20022;-79
2023/07/11 07:19:04;;;;;;;15.13;8.27;;;;;;;25.88;46.12;99897.16;6113063;23;20032;-79
2023/07/11 07:21:31;;;;;;;10.68;6.80;;;;;;;25.91;45.24;99895.88;6087138;23;20097;-79
2023/07/11 07:23:58;;;;;;;12.68;8.02;;;;;;;25.93;44.99;99891.03;6062753;23;20076;-80
2023/07/11 07:26:25;;;;;;;12.18;6.80;;;;;;;25.95;45.30;99881.56;6063046;23;20080;-79
2023/07/11 07:28:52;;;;;;;9.68;6.82;;;;;;;25.97;45.34;99881.31;6063360;23;20022;-80
2023/07/11 07:31:19;;;;;;;12.65;7.57;;;;;;;26.01;45.07;99879.78;6087668;23;20049;-79
2023/07/11 07:33:45;;;;;;;13.57;7.60;;;;;;;26.05;45.43;99878.25;6038857;23;20030;-79
2023/07/11 07:36:12;;;;;;;15.45;7.47;;;;;;;26.12;45.64;99872.69;6085964;23;20029;-79
2023/07/11 07:38:39;;;;;;;13.68;6.75;;;;;;;26.14;45.39;99874.09;6038765;23;20101;-80
2023/07/11 07:41:09;;;;;;;12.07;7.07;;;;;;;26.17;45.37;99868.19;6063826;23;20030;-79
2023/07/11 07:43:39;;;;;;;9.68;7.10;;;;;;;26.19;45.22;99871.50;6084836;23;20057;-79
2023/07/11 07:46:06;;;;;;;13.32;6.63;;;;;;;26.23;45.58;99866.44;6063305;23;20738;-79
2023/07/11 07:48:33;;;;;;;10.63;7.35;;;;;;;26.26;45.72;99862.41;6062304;23;20037;-79
2023/07/11 07:51:06;;;;;;;13.13;8.18;;;;;;;26.28;45.81;99860.25;6085911;23;20407;-79
2023/07/11 07:53:33;;;;;;;12.13;7.32;;;;;;;26.34;45.61;99859.31;6111037;23;20595;-79
2023/07/11 07:56:09;;;;;;;10.60;6.90;;;;;;;26.33;46.01;99857.63;6063711;23;20021;-79
2023/07/11 07:58:35;;;;;;;11.27;6.65;;;;;;;26.41;46.21;99855.38;6086546;23;20030;-79
2023/07/11 08:01:14;;;;;;;14.38;6.60;;;;;;;26.49;46.07;99867.81;6087928;23;20085;-81
2023/07/11 08:03:41;;;;;;;10.60;6.88;;;;;;;26.53;46.14;99852.66;6063261;23;20100;-81
2023/07/11 08:06:09;;;;;;;14.93;7.07;;;;;;;26.55;45.67;99847.81;6086650;23;20021;-81
2023/07/11 08:08:39;;;;;;;9.95;6.20;;;;;;;26.57;45.70;99845.69;6089705;23;20040;-80
2023/07/11 08:11:07;;;;;;;10.45;6.05;;;;;;;26.63;45.02;99846.59;6114976;23;20089;-81
2023/07/11 08:13:34;;;;;;;7.00;5.72;;;;;;;26.68;44.75;99829.53;6040252;23;20045;-81
2023/07/11 08:16:19;;;;;;;11.88;7.10;;;;;;;26.71;44.44;99831.78;6067567;23;20033;-81
2023/07/11 08:18:57;;;;;;;8.85;5.78;;;;;;;26.74;44.28;99834.88;6045411;23;20022;-81
2023/07/11 08:21:24;;;;;;;12.73;6.82;;;;;;;26.79;44.44;99836.84;6115000;23;20493;-81
2023/07/11 08:23:51;;;;;;;11.07;6.18;;;;;;;26.82;44.04;99830.94;6086663;23;20030;-81
2023/07/11 08:26:20;;;;;;;10.85;6.88;;;;;;;26.85;43.95;99824.97;6086521;23;20025;-79
2023/07/11 08:28:47;;;;;;;10.38;6.88;;;;;;;26.90;43.77;99822.34;6086747;23;20025;-79
2023/07/11 08:31:14;;;;;;;9.18;7.28;;;;;;;26.94;43.69;99822.69;6062937;23;20022;-79
2023/07/11 08:33:41;;;;;;;9.57;5.85;;;;;;;26.98;43.54;99826.59;6060703;23;20033;-79
2023/07/11 08:36:08;;;;;;;12.07;6.45;;;;;;;26.98;43.70;99816.50;6062413;23;20088;-79
2023/07/11 08:38:35;;;;;;;9.00;6.68;;;;;;;27.01;43.69;99826.91;6085504;23;20021;-79
2023/07/11 08:41:17;;;;;;;8.77;5.90;;;;;;;26.98;43.58;99811.06;6112726;23;21667;-79
2023/07/11 08:43:44;;;;;;;11.98;6.50;;;;;;;27.07;43.87;99811.47;6084250;23;20050;-80
2023/07/11 08:46:14;;;;;;;10.32;6.93;;;;;;;27.08;43.77;99801.44;6085000;23;20489;-79
2023/07/11 08:48:48;;;;;;;9.93;6.28;;;;;;;27.11;43.69;99799.03;6063110;23;20088;-79
2023/07/11 08:51:26;;;;;;;10.13;6.72;;;;;;;27.10;43.85;99794.66;6061730;23;20017;-81
2023/07/11 08:54:00;;;;;;;8.57;5.82;;;;;;;27.16;43.88;99796.38;6062803;23;20026;-81
2023/07/11 08:56:36;;;;;;;14.93;7.10;;;;;;;27.21;43.76;99795.69;6112052;23;20021;-79
2023/07/11 08:59:14;;;;;;;8.63;5.75;;;;;;;27.23;43.77;99786.19;6086065;23;20534;-80
2023/07/11 09:02:01;;;;;;;10.35;6.75;;;;;;;27.23;43.70;99785.38;6014184;23;20484;-79
2023/07/11 09:04:29;;;;;;;8.88;6.40;;;;;;;27.30;43.88;99774.28;6084460;23;20026;-80
2023/07/11 09:07:03;;;;;;;11.48;7.13;;;;;;;27.30;43.93;99772.41;6063148;23;20073;-79
2023/07/11 09:09:32;;;;;;;13.07;6.93;;;;;;;27.37;43.76;99773.06;6085562;23;20109;-79
2023/07/11 09:12:28;;;;;;;8.90;7.20;;;;;;;27.40;43.98;99761.66;6086256;23;20022;-79
2023/07/11 09:15:14;;;;;;;11.52;6.75;;;;;;;27.37;44.26;99758.59;6085580;23;20026;-78
2023/07/11 09:18:10;;;;;;;11.25;6.47;;;;;;;27.41;44.01;99752.41;6086261;23;20085;-81
2023/07/11 09:21:00;;;;;;;10.77;6.03;;;;;;;27.40;44.11;99756.22;6085294;23;20125;-79
2023/07/11 09:24:12;;;;;;;11.43;6.78;;;;;;;27.41;44.49;99746.94;6061389;23;20188;-79
2023/07/11 09:26:49;;;;;;;8.23;6.65;;;;;;;27.54;44.20;99739.50;5961888;23;20108;-79
2023/07/11 09:29:17;;;;;;;11.57;7.63;;;;;;;27.57;44.18;99739.81;6064494;23;20057;-79
2023/07/11 09:31:48;;;;;;;13.80;7.50;;;;;;;27.60;44.65;99736.59;6113654;23;20044;-79
2023/07/11 09:34:48;;;;;;;12.43;7.57;;;;;;;27.54;44.61;99729.41;6086876;23;20028;-80
2023/07/11 09:37:41;;;;;;;16.98;7.20;;;;;;;27.56;44.32;99727.28;6062880;23;20615;-79
2023/07/11 09:40:15;;;;;;;9.43;7.15;;;;;;;27.64;44.31;99728.75;6063339;23;20419;-79
2023/07/11 09:42:50;;;;;;;13.57;6.68;;;;;;;27.66;44.28;99719.25;6086869;23;20102;-79
2023/07/11 09:45:19;;;;;;;12.95;7.65;;;;;;;27.74;44.25;99714.44;6110253;23;20362;-79
2023/07/11 09:48:13;;;;;;;12.05;7.15;;;;;;;27.69;44.75;99707.00;6064270;23;20026;-80
2023/07/11 09:50:59;;;;;;;10.95;8.15;;;;;;;27.77;44.59;99708.47;6111702;23;20113;-79
2023/07/11 09:53:45;;;;;;;9.98;7.38;;;;;;;27.80;44.98;99711.50;6088690;23;20032;-80
2023/07/11 09:56:14;;;;;;;12.88;8.23;;;;;;;27.89;45.52;99711.94;6087894;23;20105;-80
2023/07/11 09:58:47;;;;;;;13.32;8.13;;;;;;;27.90;45.84;99706.22;6112592;23;20735;-80
2023/07/11 10:01:15;;;;;;;;;;;;;;;27.78;45.53;99696.47;6063570;23;20025;-79
2023/07/11 10:03:45;;;;;;;13.23;8.40;;;;;;;27.92;44.99;99704.06;6086311;23;19916;-79
2023/07/11 10:06:30;;;;;;;13.32;8.07;;;;;;;27.91;45.42;99696.97;6040702;23;20017;-81
2023/07/11 10:09:30;;;;;;;13.32;8.35;;;;;;;27.93;46.08;99689.31;6113386;23;20030;-81
2023/07/11 10:11:59;;;;;;;13.15;8.88;;;;;;;28.05;45.41;99689.22;6037201;23;20515;-81
2023/07/11 10:14:30;;;;;;;13.25;7.97;;;;;;;28.07;45.47;99697.16;6089978;23;20064;-87
2023/07/11 10:16:58;;;;;;;19.00;9.00;;;;;;;28.12;45.60;99689.03;6066167;23;20025;-88
2023/07/11 10:19:27;;;;;;;25.98;10.18;;;;;;;28.13;45.60;99687.94;6089648;23;20021;-89
2023/07/11 10:21:58;;;;;;;20.70;9.13;;;;;;;28.12;45.54;99678.94;6043253;23;20497;-88
2023/07/11 10:24:27;;;;;;;15.90;8.60;;;;;;;28.18;45.61;99684.44;6090734;23;20048;-90
2023/07/11 10:27:02;;;;;;;15.93;8.98;;;;;;;28.17;45.63;99675.44;6042426;23;20022;-90
2023/07/11 10:29:37;;;;;;;16.17;9.63;;;;;;;28.20;45.79;99669.47;6043196;23;20085;-88
2023/07/11 10:32:09;;;;;;;10.73;8.05;;;;;;;28.26;45.58;99664.88;6042738;23;20033;-88
2023/07/11 10:34:48;;;;;;;15.32;8.77;;;;;;;28.24;45.77;99656.97;6042587;23;20022;-89
2023/07/11 10:37:39;;;;;;;16.27;8.57;;;;;;;28.26;46.19;99656.69;6089473;23;20041;-89
2023/07/11 10:40:27;;;;;;;11.05;8.75;;;;;;;28.28;45.80;99662.72;6058566;23;20034;-92
2023/07/11 10:43:00;;;;;;;15.38;9.38;;;;;;;28.38;45.24;99659.28;6063945;23;20100;-88
2023/07/11 10:45:30;;;;;;;12.98;9.43;;;;;;;28.40;45.22;99660.66;6065625;23;20022;-88
2023/07/11 10:48:10;;;;;;;13.93;8.48;;;;;;;28.39;45.08;99655.44;6065153;23;20050;-89
2023/07/11 10:50:46;;;;;;;13.82;8.75;;;;;;;28.38;45.20;99637.44;6088628;23;20037;-89
2023/07/11 10:53:22;;;;;;;14.52;8.82;;;;;;;28.40;44.63;99638.00;6066507;23;20362;-87
2023/07/11 10:55:58;;;;;;;14.00;9.25;;;;;;;28.41;45.17;99640.44;6091546;23;20450;-90
2023/07/11 10:58:25;;;;;;;14.43;8.32;;;;;;;28.48;45.07;99629.38;6018291;23;20018;-90
2023/07/11 11:01:26;;;;;;;17.05;9.48;;;;;;;28.43;44.87;99634.75;6065995;23;20021;-89
2023/07/11 11:04:01;;;;;;;16.27;9.02;;;;;;;28.55;44.54;99630.81;6041409;23;20040;-88
2023/07/11 11:06:50;;;;;;;15.10;9.40;;;;;;;28.53;44.38;99627.50;6066415;23;20021;-87
2023/07/11 11:09:37;;;;;;;15.95;8.98;;;;;;;28.65;44.46;99621.88;6040337;23;20029;-89
2023/07/11 11:12:07;;;;;;;15.20;10.27;;;;;;;28.67;43.96;99618.88;6088746;23;20018;-87
2023/07/11 11:14:54;;;;;;;16.13;9.40;;;;;;;28.61;43.68;99595.34;6064244;23;20096;-91
2023/07/11 11:17:26;;;;;;;14.27;9.02;;;;;;;28.62;43.45;99603.25;6040931;23;20350;-88
2023/07/11 11:20:03;;;;;;;19.85;9.93;;;;;;;28.65;43.74;99596.44;6066992;23;20105;-92
2023/07/11 11:22:58;;;;;;;15.20;9.93;;;;;;;28.63;43.52;99593.16;6090391;23;20029;-90
2023/07/11 11:25:46;;;;;;;13.48;8.45;;;;;;;28.65;43.67;99591.81;6064855;23;20030;-90
2023/07/11 11:28:23;;;;;;;17.80;9.48;;;;;;;28.75;43.54;99596.53;6089408;23;20029;-90
2023/07/11 11:31:03;;;;;;;17.80;10.13;;;;;;;28.78;43.30;99580.44;6019107;23;20021;-90
2023/07/11 11:33:47;;;;;;;16.02;9.68;;;;;;;28.70;42.95;99574.63;6089415;23;20026;-91
2023/07/11 11:36:21;;;;;;;14.68;9.73;;;;;;;28.77;43.18;99575.22;6066372;23;20022;-90
2023/07/11 11:39:04;;;;;;;16.08;9.05;;;;;;;28.70;43.17;99572.75;6089364;23;20018;-90